createdAt,value
2019-03-01T00:00:50.569Z,5.50
2019-03-01T00:03:16.893Z,5.60
2019-03-01T00:05:43.228Z,5.66
2019-03-01T00:08:09.558Z,5.55
2019-03-01T00:10:35.887Z,5.48
2019-03-01T00:13:02.238Z,5.33
2019-03-01T00:15:28.537Z,5.25
2019-03-01T00:17:54.845Z,5.24
2019-03-01T00:20:21.162Z,5.52
2019-03-01T00:22:47.464Z,5.83
2019-03-01T00:25:13.774Z,6.01
2019-03-01T00:27:40.084Z,6.17
2019-03-01T00:30:06.400Z,6.10
2019-03-01T00:32:32.714Z,5.93
2019-03-01T00:34:59.020Z,5.91
2019-03-01T00:37:25.328Z,5.80
2019-03-01T00:39:51.651Z,5.80
2019-03-01T00:42:17.958Z,5.82
2019-03-01T00:44:44.286Z,5.88
2019-03-01T00:47:10.597Z,5.77
2019-03-01T00:49:36.909Z,5.71
2019-03-01T00:52:03.211Z,5.66
2019-03-01T00:54:29.526Z,5.67
2019-03-01T00:56:55.832Z,5.54
2019-03-01T00:59:22.147Z,5.58
2019-03-01T01:01:48.455Z,5.66
2019-03-01T01:04:14.761Z,5.59
2019-03-01T01:06:41.067Z,5.37
2019-03-01T01:09:07.377Z,5.28
2019-03-01T01:11:33.707Z,5.12
2019-03-01T01:14:00.018Z,5.02
2019-03-01T01:16:26.330Z,5.05
2019-03-01T01:18:52.637Z,5.11
2019-03-01T01:21:18.945Z,5.18
2019-03-01T01:23:45.252Z,5.13
2019-03-01T01:26:11.562Z,5.08
2019-03-01T01:28:37.873Z,5.09
2019-03-01T01:31:04.181Z,5.10
2019-03-01T01:33:30.493Z,5.17
2019-03-01T01:35:56.799Z,5.03
2019-03-01T01:38:23.119Z,4.92
2019-03-01T01:40:49.421Z,4.78
2019-03-01T01:43:15.733Z,4.58
2019-03-01T01:45:42.074Z,4.54
2019-03-01T01:48:08.349Z,4.70
2019-03-01T01:50:34.658Z,4.86
2019-03-01T01:53:00.959Z,4.85
2019-03-01T01:55:27.264Z,4.76
2019-03-01T01:57:53.572Z,4.79
2019-03-01T02:00:19.882Z,4.73
2019-03-01T02:02:46.192Z,4.70
2019-03-01T02:05:12.565Z,4.65
2019-03-01T02:07:38.822Z,4.72
2019-03-01T02:10:05.123Z,4.71
2019-03-01T02:12:31.428Z,4.71
2019-03-01T02:14:57.735Z,4.62
2019-03-01T02:17:24.043Z,4.74
2019-03-01T02:19:50.358Z,4.89
2019-03-01T02:22:16.665Z,4.99
2019-03-01T02:24:43.013Z,5.01
2019-03-01T02:27:09.332Z,5.00
2019-03-01T02:29:35.639Z,4.94
2019-03-01T02:32:01.949Z,4.81
2019-03-01T02:34:28.257Z,4.81
2019-03-01T02:36:54.568Z,4.86
2019-03-01T02:39:20.878Z,4.94
2019-03-01T02:41:47.186Z,4.92
2019-03-01T02:44:13.499Z,4.89
2019-03-01T02:46:39.807Z,4.92
2019-03-01T02:49:06.139Z,4.95
2019-03-01T02:51:32.453Z,4.95
2019-03-01T02:53:58.761Z,4.89
2019-03-01T02:56:25.092Z,4.92
2019-03-01T02:58:51.380Z,5.00
2019-03-01T03:01:17.704Z,4.91
2019-03-01T03:03:44.018Z,4.93
2019-03-01T03:06:10.333Z,4.97
2019-03-01T03:08:36.626Z,5.08
2019-03-01T03:11:02.937Z,5.06
2019-03-01T03:13:29.246Z,5.10
2019-03-01T03:15:55.558Z,5.16
2019-03-01T03:18:21.866Z,5.14
2019-03-01T03:20:48.176Z,5.10
2019-03-01T03:23:14.495Z,5.16
2019-03-01T03:25:40.812Z,5.19
2019-03-01T03:28:07.130Z,5.30
2019-03-01T03:30:33.452Z,5.31
2019-03-01T03:32:59.923Z,5.22
2019-03-01T03:35:26.224Z,4.85
2019-03-01T03:37:52.533Z,4.74
2019-03-01T03:40:18.841Z,4.71
2019-03-01T03:42:45.160Z,4.69
2019-03-01T03:45:11.465Z,4.70
2019-03-01T03:47:37.773Z,4.53
2019-03-01T03:50:04.083Z,4.45
2019-03-01T03:52:30.390Z,4.60
2019-03-01T03:54:56.719Z,4.67
2019-03-01T03:57:23.022Z,4.67
2019-03-01T03:59:49.334Z,4.78
2019-03-01T04:02:15.645Z,4.84
2019-03-01T04:04:41.955Z,4.87
2019-03-01T04:07:08.271Z,4.81
2019-03-01T04:09:34.588Z,4.83
2019-03-01T04:12:00.890Z,4.85
2019-03-01T04:14:27.198Z,4.85
2019-03-01T04:16:53.542Z,4.86
2019-03-01T04:19:19.849Z,4.86
2019-03-01T04:21:46.159Z,4.79
2019-03-01T04:24:12.471Z,4.81
2019-03-01T04:26:38.775Z,5.02
2019-03-01T04:29:05.087Z,5.10
2019-03-01T04:31:31.386Z,5.17
2019-03-01T04:33:57.726Z,5.25
2019-03-01T04:36:24.030Z,5.30
2019-03-01T04:38:50.337Z,5.35
2019-03-01T04:41:16.666Z,5.43
2019-03-01T04:43:42.980Z,5.49
2019-03-01T04:46:09.283Z,5.63
2019-03-01T04:48:35.612Z,5.68
2019-03-01T04:51:01.921Z,6.15
2019-03-01T04:53:28.223Z,6.55
2019-03-01T04:55:54.542Z,6.80
2019-03-01T04:58:20.853Z,7.00
2019-03-01T05:00:47.159Z,7.12
2019-03-01T05:03:13.465Z,7.13
2019-03-01T05:05:39.794Z,7.11
2019-03-01T05:08:06.098Z,6.96
2019-03-01T05:10:32.409Z,6.95
2019-03-01T05:12:58.757Z,6.96
2019-03-01T05:15:25.073Z,7.05
2019-03-01T05:17:51.387Z,7.02
2019-03-01T05:20:17.692Z,7.05
2019-03-01T05:22:44.001Z,6.99
2019-03-01T05:25:10.304Z,6.99
2019-03-01T05:27:36.649Z,7.21
2019-03-01T05:30:02.921Z,7.58
2019-03-01T05:32:29.232Z,7.83
2019-03-01T05:34:56.883Z,8.01
2019-03-01T05:37:21.849Z,8.10
2019-03-01T05:39:48.153Z,8.32
2019-03-01T05:42:14.470Z,8.53
2019-03-01T05:44:40.791Z,8.89
2019-03-01T05:47:07.092Z,9.20
2019-03-01T05:49:33.407Z,9.50
2019-03-01T05:51:59.748Z,9.56
2019-03-01T05:54:26.057Z,9.58
2019-03-01T05:56:52.385Z,9.63
2019-03-01T05:59:18.697Z,9.96
2019-03-01T06:01:45.013Z,10.35
2019-03-01T06:04:11.340Z,10.65
2019-03-01T06:06:37.648Z,10.79
2019-03-01T06:09:03.966Z,10.95
2019-03-01T06:11:30.279Z,11.21
2019-03-01T06:13:56.594Z,11.28
2019-03-01T06:16:22.903Z,11.40
2019-03-01T06:18:49.215Z,11.55
2019-03-01T06:21:15.521Z,11.80
2019-03-01T06:23:41.832Z,12.07
2019-03-01T06:26:08.182Z,12.16
2019-03-01T06:28:34.543Z,12.27
2019-03-01T06:31:00.855Z,12.42
2019-03-01T06:33:27.186Z,12.53
2019-03-01T06:35:53.506Z,12.74
2019-03-01T06:38:19.823Z,12.74
2019-03-01T06:40:46.133Z,12.69
2019-03-01T06:43:12.442Z,12.55
2019-03-01T06:45:38.758Z,12.72
2019-03-01T06:48:05.061Z,12.89
2019-03-01T06:50:31.370Z,13.25
2019-03-01T06:52:57.682Z,13.28
2019-03-01T06:55:23.988Z,13.44
2019-03-01T06:57:50.299Z,13.61
2019-03-01T07:00:16.622Z,13.74
2019-03-01T07:02:42.932Z,13.72
2019-03-01T07:05:09.241Z,13.93
2019-03-01T07:07:35.555Z,13.98
2019-03-01T07:10:01.889Z,14.08
2019-03-01T07:12:28.177Z,14.24
2019-03-01T07:14:54.485Z,14.41
2019-03-01T07:17:20.827Z,14.51
2019-03-01T07:19:47.148Z,14.40
2019-03-01T07:22:13.464Z,14.47
2019-03-01T07:24:39.819Z,14.66
2019-03-01T07:27:06.093Z,14.48
2019-03-01T07:29:32.407Z,14.62
2019-03-01T07:31:58.716Z,14.70
2019-03-01T07:34:25.029Z,14.92
2019-03-01T07:36:51.339Z,15.06
2019-03-01T07:39:17.659Z,15.40
2019-03-01T07:41:43.964Z,15.51
2019-03-01T07:44:10.295Z,15.08
2019-03-01T07:46:36.600Z,15.32
2019-03-01T07:49:02.913Z,15.16
2019-03-01T07:51:30.764Z,15.18
2019-03-01T07:53:55.544Z,15.33
2019-03-01T07:56:21.878Z,15.59
2019-03-01T07:58:48.210Z,15.19
2019-03-01T08:01:14.517Z,15.10
2019-03-01T08:03:40.825Z,15.15
2019-03-01T08:06:07.135Z,14.99
2019-03-01T08:08:34.743Z,15.28
2019-03-01T08:11:00.211Z,15.32
2019-03-01T08:13:26.892Z,15.51
2019-03-01T08:15:52.378Z,15.50
2019-03-01T08:18:18.699Z,15.47
2019-03-01T08:20:45.002Z,15.66
2019-03-01T08:23:11.329Z,15.44
2019-03-01T08:25:37.693Z,15.41
2019-03-01T08:28:04.062Z,15.37
2019-03-01T08:30:30.379Z,15.16
2019-03-01T08:32:56.696Z,15.16
2019-03-01T08:35:25.280Z,15.36
2019-03-01T08:37:49.925Z,15.18
2019-03-01T08:40:15.717Z,15.48
2019-03-01T08:42:41.957Z,15.80
2019-03-01T08:45:08.264Z,15.53
2019-03-01T08:47:34.579Z,15.57
2019-03-01T08:50:00.887Z,15.74
2019-03-01T08:52:27.217Z,15.69
2019-03-01T08:54:53.540Z,15.52
2019-03-01T08:57:22.585Z,15.65
2019-03-01T08:59:46.167Z,15.98
2019-03-01T09:02:12.475Z,16.16
2019-03-01T09:04:38.788Z,16.36
2019-03-01T09:07:05.089Z,16.71
2019-03-01T09:09:31.409Z,16.51
2019-03-01T09:11:57.737Z,16.49
2019-03-01T09:14:26.228Z,16.57
2019-03-01T09:16:50.368Z,16.53
2019-03-01T09:19:16.739Z,16.56
2019-03-01T09:21:44.781Z,16.69
2019-03-01T09:24:09.360Z,17.21
2019-03-01T09:26:35.788Z,16.83
2019-03-01T09:29:02.046Z,16.88
2019-03-01T09:31:28.355Z,17.30
2019-03-01T09:33:56.521Z,16.87
2019-03-01T09:36:21.518Z,17.09
2019-03-01T09:38:47.309Z,17.58
2019-03-01T09:41:13.746Z,17.49
2019-03-01T09:43:40.180Z,17.37
2019-03-01T09:46:06.494Z,17.27
2019-03-01T09:48:32.808Z,17.28
2019-03-01T09:50:59.116Z,17.54
2019-03-01T09:53:25.442Z,17.87
2019-03-01T09:55:51.738Z,17.81
2019-03-01T09:58:18.057Z,17.82
2019-03-01T10:00:44.361Z,17.76
2019-03-01T10:03:10.685Z,17.95
2019-03-01T10:05:37.133Z,17.85
2019-03-01T10:08:03.448Z,17.79
2019-03-01T10:10:29.758Z,18.19
2019-03-01T10:12:56.138Z,17.79
2019-03-01T10:15:22.446Z,18.01
2019-03-01T10:17:48.774Z,18.02
2019-03-01T10:20:15.087Z,18.10
2019-03-01T10:22:41.392Z,18.39
2019-03-01T10:25:07.700Z,18.44
2019-03-01T10:27:34.005Z,18.43
2019-03-01T10:30:00.755Z,18.93
2019-03-01T10:32:27.073Z,18.84
2019-03-01T10:34:53.367Z,18.89
2019-03-01T10:37:19.812Z,19.12
2019-03-01T10:39:54.906Z,18.90
2019-03-01T10:42:12.429Z,18.94
2019-03-01T10:44:38.736Z,18.78
2019-03-01T10:47:05.041Z,18.92
2019-03-01T10:49:31.358Z,18.76
2019-03-01T10:51:57.660Z,19.17
2019-03-01T10:54:23.968Z,18.93
2019-03-01T10:56:50.273Z,19.21
2019-03-01T10:59:16.597Z,19.30
2019-03-01T11:01:42.900Z,19.23
2019-03-01T11:04:09.208Z,19.41
2019-03-01T11:06:35.517Z,19.26
2019-03-01T11:09:01.838Z,19.37
2019-03-01T11:11:28.144Z,19.34
2019-03-01T11:13:54.473Z,19.15
2019-03-01T11:16:20.795Z,19.44
2019-03-01T11:18:47.123Z,19.40
2019-03-01T11:21:13.417Z,19.55
2019-03-01T11:23:39.725Z,19.36
2019-03-01T11:26:06.037Z,19.04
2019-03-01T11:28:32.390Z,19.13
2019-03-01T11:30:58.675Z,19.51
2019-03-01T11:33:25.022Z,19.61
2019-03-01T11:35:51.332Z,19.43
2019-03-01T11:38:17.637Z,19.74
2019-03-01T11:40:43.951Z,19.65
2019-03-01T11:43:10.257Z,19.63
2019-03-01T11:45:36.580Z,19.32
2019-03-01T11:48:02.886Z,19.49
2019-03-01T11:50:29.198Z,19.08
2019-03-01T11:52:55.519Z,19.13
2019-03-01T11:55:21.820Z,19.04
2019-03-01T11:57:48.140Z,19.08
2019-03-01T12:00:14.482Z,19.37
2019-03-01T12:02:40.792Z,19.29
2019-03-01T12:05:07.109Z,19.61
2019-03-01T12:07:33.418Z,19.76
2019-03-01T12:09:59.730Z,19.17
2019-03-01T12:12:26.053Z,19.28
2019-03-01T12:14:52.366Z,18.91
2019-03-01T12:17:18.681Z,18.91
2019-03-01T12:19:44.987Z,19.33
2019-03-01T12:22:17.186Z,19.54
2019-03-01T12:24:37.623Z,19.47
2019-03-01T12:27:03.936Z,19.44
2019-03-01T12:29:30.244Z,19.49
2019-03-01T12:31:56.556Z,19.53
2019-03-01T12:34:22.880Z,19.57
2019-03-01T12:36:49.194Z,19.82
2019-03-01T12:39:15.512Z,19.76
2019-03-01T12:41:41.821Z,19.37
2019-03-01T12:44:08.131Z,19.18
2019-03-01T12:46:35.548Z,19.23
2019-03-01T12:49:01.856Z,19.54
2019-03-01T12:51:28.172Z,19.39
2019-03-01T12:53:54.493Z,19.12
2019-03-01T12:56:20.796Z,19.15
2019-03-01T12:58:47.125Z,19.20
2019-03-01T13:01:13.441Z,19.31
2019-03-01T13:03:40.659Z,19.27
2019-03-01T13:06:06.099Z,19.14
2019-03-01T13:08:32.425Z,19.12
2019-03-01T13:10:58.733Z,19.29
2019-03-01T13:13:25.043Z,19.39
2019-03-01T13:15:52.398Z,19.33
2019-03-01T13:18:18.410Z,19.41
2019-03-01T13:20:44.741Z,19.39
2019-03-01T13:23:11.055Z,19.27
2019-03-01T13:25:37.383Z,19.42
2019-03-01T13:28:03.685Z,18.95
2019-03-01T13:30:32.523Z,18.16
2019-03-01T13:32:58.828Z,17.93
2019-03-01T13:35:26.043Z,17.68
2019-03-01T13:37:52.026Z,17.77
2019-03-01T13:40:15.286Z,17.70
2019-03-01T13:42:41.601Z,17.50
2019-03-01T13:47:51.936Z,17.26
2019-03-01T13:50:18.247Z,17.18
2019-03-01T13:52:44.557Z,17.17
2019-03-01T13:55:10.880Z,17.07
2019-03-01T13:57:37.241Z,17.05
2019-03-01T14:00:03.547Z,17.13
2019-03-01T14:02:29.858Z,17.09
2019-03-01T14:04:56.174Z,17.05
2019-03-01T14:07:22.484Z,17.09
2019-03-01T14:09:48.852Z,16.96
2019-03-01T14:12:15.147Z,16.80
2019-03-01T14:14:41.473Z,16.79
2019-03-01T14:17:07.801Z,16.75
2019-03-01T14:19:34.134Z,16.71
2019-03-01T14:22:00.475Z,16.78
2019-03-01T14:24:29.522Z,16.76
2019-03-01T14:26:54.038Z,16.60
2019-03-01T14:29:19.416Z,16.58
2019-03-01T14:31:45.719Z,16.46
2019-03-01T14:34:12.843Z,16.42
2019-03-01T14:36:39.845Z,16.43
2019-03-01T14:39:06.935Z,16.37
2019-03-01T14:41:34.080Z,16.25
2019-03-01T14:43:59.043Z,16.26
2019-03-01T14:46:23.671Z,16.18
2019-03-01T14:48:49.972Z,16.07
2019-03-01T14:51:16.290Z,16.05
2019-03-01T14:53:42.601Z,15.98
2019-03-01T14:56:08.909Z,15.87
2019-03-01T14:58:35.226Z,15.82
2019-03-01T15:01:01.558Z,15.78
2019-03-01T15:03:27.869Z,15.78
2019-03-01T15:05:54.176Z,15.70
2019-03-01T15:08:20.489Z,15.65
2019-03-01T15:10:46.798Z,15.63
2019-03-01T15:13:13.109Z,15.62
2019-03-01T15:15:39.413Z,15.56
2019-03-01T15:18:05.747Z,15.52
2019-03-01T15:20:32.126Z,15.46
2019-03-01T15:22:58.436Z,15.43
2019-03-01T15:25:24.752Z,15.40
2019-03-01T15:27:51.096Z,15.27
2019-03-01T15:30:17.401Z,15.26
2019-03-01T15:32:43.737Z,15.19
2019-03-01T15:35:10.030Z,15.10
2019-03-01T15:37:36.335Z,15.05
2019-03-01T15:40:02.645Z,14.99
2019-03-01T15:42:28.947Z,14.88
2019-03-01T15:44:55.258Z,14.85
2019-03-01T15:47:23.898Z,14.79
2019-03-01T15:49:48.012Z,14.71
2019-03-01T15:52:14.775Z,14.64
2019-03-01T15:54:40.527Z,14.61
2019-03-01T15:57:06.841Z,14.57
2019-03-01T15:59:33.154Z,14.53
2019-03-01T16:01:59.503Z,14.45
2019-03-01T16:04:25.806Z,14.36
2019-03-01T16:06:55.269Z,14.33
2019-03-01T16:09:18.439Z,14.24
2019-03-01T16:11:44.749Z,14.21
2019-03-01T16:14:11.140Z,14.17
2019-03-01T16:16:37.446Z,14.09
2019-03-01T16:19:03.765Z,14.03
2019-03-01T16:21:30.113Z,13.97
2019-03-01T16:23:56.390Z,13.88
2019-03-01T16:26:29.575Z,13.85
2019-03-01T16:28:49.012Z,13.81
2019-03-01T16:31:15.342Z,13.77
2019-03-01T16:33:41.652Z,13.74
2019-03-01T16:36:07.961Z,13.70
2019-03-01T16:38:40.645Z,13.58
2019-03-01T16:41:01.896Z,13.55
2019-03-01T16:43:28.647Z,13.53
2019-03-01T16:45:53.353Z,13.48
2019-03-01T16:48:19.557Z,13.43
2019-03-01T16:50:45.866Z,13.36
2019-03-01T16:53:12.172Z,13.29
2019-03-01T16:55:38.501Z,13.27
2019-03-01T16:58:07.097Z,13.19
2019-03-01T17:00:31.121Z,13.15
2019-03-01T17:02:57.430Z,13.09
2019-03-01T17:05:23.778Z,13.04
2019-03-01T17:07:50.096Z,13.00
2019-03-01T17:10:16.403Z,12.96
2019-03-01T17:12:42.735Z,12.98
2019-03-01T17:15:10.799Z,12.93
2019-03-01T17:17:37.761Z,12.82
2019-03-01T17:20:03.714Z,12.71
2019-03-01T17:22:29.332Z,12.66
2019-03-01T17:24:55.637Z,12.66
2019-03-01T17:27:23.085Z,12.65
2019-03-01T17:29:49.570Z,12.54
2019-03-01T17:32:15.889Z,12.45
2019-03-01T17:34:42.303Z,12.39
2019-03-01T17:37:11.239Z,12.43
2019-03-01T17:39:37.554Z,12.46
2019-03-01T17:42:03.860Z,12.46
2019-03-01T17:44:30.179Z,12.42
2019-03-01T17:46:56.501Z,12.41
2019-03-01T17:49:22.809Z,12.38
2019-03-01T17:51:49.112Z,12.34
2019-03-01T17:54:15.460Z,12.30
2019-03-01T17:56:41.770Z,12.26
2019-03-01T17:59:11.613Z,12.22
2019-03-01T18:01:35.657Z,12.15
2019-03-01T18:04:01.805Z,12.15
2019-03-01T18:06:26.999Z,12.14
2019-03-01T18:08:53.313Z,12.10
2019-03-01T18:11:19.633Z,12.07
2019-03-01T18:13:45.945Z,12.03
2019-03-01T18:16:12.280Z,11.99
2019-03-01T18:18:38.582Z,11.99
2019-03-01T18:21:04.882Z,11.99
2019-03-01T18:23:34.295Z,12.10
2019-03-01T18:25:59.687Z,12.13
2019-03-01T18:28:24.915Z,12.23
2019-03-01T18:30:51.985Z,12.21
2019-03-01T18:33:20.684Z,12.22
2019-03-01T18:35:43.100Z,12.28
2019-03-01T18:38:09.421Z,12.29
2019-03-01T18:40:35.725Z,12.22
2019-03-01T18:43:02.378Z,12.30
2019-03-01T18:45:28.699Z,12.22
2019-03-01T18:47:55.015Z,12.10
2019-03-01T18:50:21.337Z,12.13
2019-03-01T18:52:49.558Z,12.03
2019-03-01T18:55:17.507Z,12.03
2019-03-01T18:57:50.431Z,12.01
2019-03-01T19:00:14.539Z,12.02
2019-03-01T19:02:40.846Z,11.91
2019-03-01T19:05:08.406Z,11.77
2019-03-01T19:07:33.524Z,11.68
2019-03-01T19:09:59.833Z,11.82
2019-03-01T19:12:26.146Z,11.88
2019-03-01T19:14:52.453Z,11.91
2019-03-01T19:17:18.778Z,11.89
2019-03-01T19:19:45.084Z,12.09
2019-03-01T19:22:11.413Z,11.92
2019-03-01T19:24:43.031Z,11.82
2019-03-01T19:27:04.354Z,11.68
2019-03-01T19:29:30.671Z,11.54
2019-03-01T19:31:56.977Z,11.46
2019-03-01T19:34:23.290Z,11.37
2019-03-01T19:36:49.592Z,11.43
2019-03-01T19:39:15.909Z,11.33
2019-03-01T19:41:42.221Z,11.47
2019-03-01T19:44:08.715Z,11.64
2019-03-01T19:46:35.021Z,11.77
2019-03-01T19:49:01.328Z,11.60
2019-03-01T19:51:27.638Z,11.61
2019-03-01T19:53:53.945Z,11.66
2019-03-01T19:56:25.023Z,11.76
2019-03-01T19:58:48.030Z,11.79
2019-03-01T20:01:14.710Z,12.07
2019-03-01T20:03:39.196Z,12.08
2019-03-01T20:06:08.091Z,11.93
2019-03-01T20:08:31.887Z,11.84
2019-03-01T20:10:58.282Z,11.54
2019-03-01T20:13:24.671Z,11.35
2019-03-01T20:15:50.981Z,10.66
2019-03-01T20:18:17.290Z,10.07
2019-03-01T20:20:43.888Z,9.94
2019-03-01T20:23:10.215Z,9.77
2019-03-01T20:25:36.555Z,9.54
2019-03-01T20:28:02.836Z,9.27
2019-03-01T20:30:30.551Z,9.17
2019-03-01T20:32:55.468Z,9.23
2019-03-01T20:35:21.776Z,9.66
2019-03-01T20:37:48.090Z,9.96
2019-03-01T20:40:14.407Z,9.71
2019-03-01T20:42:40.716Z,9.17
2019-03-01T20:45:09.073Z,8.86
2019-03-01T20:47:33.341Z,8.70
2019-03-01T20:49:59.749Z,8.67
2019-03-01T20:52:26.198Z,8.68
2019-03-01T20:54:52.501Z,8.61
2019-03-01T20:57:18.833Z,8.41
2019-03-01T20:59:46.910Z,8.24
2019-03-01T21:02:13.150Z,8.08
2019-03-01T21:04:41.557Z,7.99
2019-03-01T21:07:04.223Z,7.93
2019-03-01T21:09:30.541Z,7.97
2019-03-01T21:11:57.801Z,7.93
2019-03-01T21:14:23.820Z,7.86
2019-03-01T21:16:49.474Z,7.84
2019-03-01T21:19:15.787Z,7.86
2019-03-01T21:21:42.088Z,7.97
2019-03-01T21:24:10.235Z,8.04
2019-03-01T21:26:34.739Z,7.99
2019-03-01T21:29:02.118Z,7.90
2019-03-01T21:31:31.741Z,7.88
2019-03-01T21:33:54.739Z,7.87
2019-03-01T21:36:22.922Z,7.87
2019-03-01T21:38:50.304Z,7.81
2019-03-01T21:41:15.749Z,7.75
2019-03-01T21:43:42.058Z,7.82
2019-03-01T21:46:08.638Z,7.94
2019-03-01T21:48:34.721Z,8.00
2019-03-01T21:51:01.001Z,8.04
2019-03-01T21:53:27.336Z,8.04
2019-03-01T21:55:53.675Z,8.25
2019-03-01T21:58:19.956Z,8.31
2019-03-01T22:00:46.267Z,8.32
2019-03-01T22:03:12.585Z,8.31
2019-03-01T22:05:38.887Z,8.35
2019-03-01T22:08:05.198Z,8.18
2019-03-01T22:10:34.872Z,8.01
2019-03-01T22:13:00.524Z,7.80
2019-03-01T22:15:25.375Z,7.82
2019-03-01T22:17:50.444Z,7.88
2019-03-01T22:20:17.518Z,7.82
2019-03-01T22:22:44.076Z,7.78
2019-03-01T22:25:10.494Z,7.82
2019-03-01T22:27:36.821Z,7.78
2019-03-01T22:30:03.137Z,7.73
2019-03-01T22:32:29.443Z,7.79
2019-03-01T22:34:55.771Z,7.73
2019-03-01T22:37:24.810Z,7.58
2019-03-01T22:39:51.260Z,7.64
2019-03-01T22:42:15.218Z,7.68
2019-03-01T22:44:41.039Z,7.62
2019-03-01T22:47:07.348Z,7.59
2019-03-01T22:49:33.661Z,7.55
2019-03-01T22:51:59.993Z,7.44
2019-03-01T22:54:26.305Z,7.39
2019-03-01T22:56:52.614Z,7.53
2019-03-01T22:59:18.921Z,7.61
2019-03-01T23:01:45.239Z,7.70
2019-03-01T23:04:11.545Z,7.74
2019-03-01T23:06:37.853Z,7.51
2019-03-01T23:09:04.170Z,7.22
2019-03-01T23:11:32.462Z,7.06
2019-03-01T23:13:56.794Z,7.13
2019-03-01T23:16:23.101Z,7.32
2019-03-01T23:18:56.385Z,7.22
2019-03-01T23:21:15.809Z,7.05
2019-03-01T23:23:42.118Z,7.08
2019-03-01T23:26:08.435Z,7.06
2019-03-01T23:28:34.745Z,7.02
2019-03-01T23:31:03.603Z,7.04
2019-03-01T23:33:27.764Z,7.01
2019-03-01T23:35:53.904Z,6.65
2019-03-01T23:38:19.980Z,6.57
2019-03-01T23:40:46.283Z,6.54
2019-03-01T23:43:12.597Z,6.46
2019-03-01T23:45:38.905Z,6.45
2019-03-01T23:48:05.217Z,6.40
2019-03-01T23:50:34.652Z,6.19
2019-03-01T23:52:58.904Z,6.04
2019-03-01T23:55:24.144Z,5.99
2019-03-01T23:57:50.461Z,5.96
